Home > Products > Valid Products > TAF

000
FTUS42 KMLB 191740
TAFVRB
TAF
KVRB 191740Z 1918/2018 15007KT P6SM VCSH SCT040 BKN250
     FM192200 20008KT P6SM VCTS SCT040CB BKN250
     FM200200 20005KT P6SM SCT040 BKN250=



000
FTUS42 KMLB 191740
TAFSFB
TAF
KSFB 191740Z 1918/2018 18012KT P6SM SCT040 BKN250
     FM192100 24012KT P6SM VCTS SCT050CB BKN250
     FM200000 26007KT P6SM FEW040 BKN150
     FM200400 20005KT P6SM SCT020 BKN100=



000
FTUS42 KMLB 191740
TAFDAB
TAF
KDAB 191740Z 1918/2018 20011KT P6SM SCT040 BKN250
     FM192200 24010KT P6SM VCTS SCT050CB BKN250
     FM200200 22005KT P6SM SCT040 BKN150=



000
FTUS42 KMLB 191740
TAFMLB
TAF
KMLB 191740Z 1918/2018 20012KT P6SM SCT040 BKN250
     FM192200 24010KT P6SM VCTS SCT050CB BKN250
     FM200200 22005KT P6SM SCT040 BKN150=



000
FTUS42 KMLB 191740
TAFMCO
TAF
KMCO 191740Z 1918/2018 18012KT P6SM SCT040 BKN250
     FM192100 24012KT P6SM VCTS SCT050CB BKN250
     FM200000 26007KT P6SM FEW040 BKN150
     FM200400 20005KT P6SM SCT020 BKN100=



000
FTUS42 KMLB 191740
TAFDAB
TAF
KDAB 191740Z 1918/2018 20011KT P6SM SCT040 BKN250
     FM192200 24010KT P6SM VCTS SCT050CB BKN250
     FM200200 22005KT P6SM SCT040 BKN150=



000
FTUS42 KMLB 191740
TAFSFB
TAF
KSFB 191740Z 1918/2018 18012KT P6SM SCT040 BKN250
     FM192100 24012KT P6SM VCTS SCT050CB BKN250
     FM200000 26007KT P6SM FEW040 BKN150
     FM200400 20005KT P6SM SCT020 BKN100=



000
FTUS42 KMLB 191740
TAFVRB
TAF
KVRB 191740Z 1918/2018 15007KT P6SM VCSH SCT040 BKN250
     FM192200 20008KT P6SM VCTS SCT040CB BKN250
     FM200200 20005KT P6SM SCT040 BKN250=



000
FTUS42 KMLB 191740
TAFMLB
TAF
KMLB 191740Z 1918/2018 20012KT P6SM SCT040 BKN250
     FM192200 24010KT P6SM VCTS SCT050CB BKN250
     FM200200 22005KT P6SM SCT040 BKN150=



000
FTUS42 KMLB 191740
TAFMCO
TAF
KMCO 191740Z 1918/2018 18012KT P6SM SCT040 BKN250
     FM192100 24012KT P6SM VCTS SCT050CB BKN250
     FM200000 26007KT P6SM FEW040 BKN150
     FM200400 20005KT P6SM SCT020 BKN100=



000
FTUS42 KMLB 191451 AAA
TAFMCO
TAF AMD
KMCO 191451Z 1915/2012 18010KT P6SM SCT035 SCT250
     FM192100 22012KT P6SM VCTS SCT040CB BKN250
     FM200000 28007KT P6SM FEW040 BKN250
     FM200800 19005KT P6SM SCT020 BKN100=



000
FTUS42 KMLB 191451 AAA
TAFMCO
TAF AMD
KMCO 191451Z 1915/2012 18010KT P6SM SCT035 SCT250
     FM192100 22012KT P6SM VCTS SCT040CB BKN250
     FM200000 28007KT P6SM FEW040 BKN250
     FM200800 19005KT P6SM SCT020 BKN100=



000
FTUS42 KMLB 191135
TAFSFB
TAF
KSFB 191135Z 1912/2012 30004KT P6SM OVC250
     FM191400 21010KT P6SM SCT030 BKN250
     FM191800 25009KT P6SM VCTS SCT040CB BKN250
     FM200300 18003KT P6SM FEW040 BKN250
     FM201000 20005KT P6SM SCT020 BKN100=



000
FTUS42 KMLB 191135
TAFMLB
TAF
KMLB 191135Z 1912/2012 17003KT P6SM SCT250
     FM191300 21009KT P6SM SCT030 BKN250
     FM191900 11007KT P6SM VCTS SCT040CB BKN250
     FM200300 19005KT P6SM FEW040 BKN250
     FM200900 21005KT P6SM SCT020 BKN100=



000
FTUS42 KMLB 191135
TAFVRB
TAF
KVRB 191135Z 1912/2012 28003KT P6SM SCT250
     FM191900 11008KT P6SM VCTS SCT040CB BKN250
     FM200200 20005KT P6SM FEW040 BKN250
     FM200900 19004KT P6SM SCT020 BKN100=



000
FTUS42 KMLB 191135
TAFMCO
TAF
KMCO 191135Z 1912/2012 00000KT P6SM OVC250
     FM191500 18010KT P6SM VCSH SCT030 BKN250
     FM192000 22012KT P6SM VCTS SCT040CB BKN120
     FM200000 28007KT P6SM FEW040 BKN250
     FM200800 19005KT P6SM SCT020 BKN100=



000
FTUS42 KMLB 191135
TAFDAB
TAF
KDAB 191135Z 1912/2012 27004KT P6SM OVC130
     FM191400 19008KT P6SM SCT020 BKN200
     FM191800 25008KT P6SM VCTS SCT040CB BKN250
     FM200100 22003KT P6SM FEW040 BKN250
     FM200800 21005KT P6SM SCT020 BKN100=



000
FTUS42 KMLB 191007 AAA
TAFVRB
TAF AMD
KVRB 191007Z 1910/2006 00000KT 1SM BR SKC
     FM191200 20009KT P6SM SCT030 BKN250
     FM191900 11008KT P6SM VCTS SCT040CB BKN250
     FM200200 20005KT P6SM FEW040 BKN250=



000
FTUS42 KMLB 190909 AAA
TAFMCO
TAF AMD
KMCO 190909Z 1909/2006 00000KT P6SM FEW180 OVC300
     FM191500 18010KT P6SM VCSH SCT030 BKN250
     FM192000 22012KT P6SM VCTS SCT040CB BKN120
     FM200000 28007KT P6SM FEW040 BKN250=



000
FTUS42 KMLB 190532
TAFMCO
TAF
KMCO 190532Z 1906/2006 00000KT P6SM BKN180 OVC300
     FM191400 18010KT P6SM SCT030 BKN250
     FM191800 23008KT P6SM VCTS SCT040CB BKN250
     FM200300 20003KT P6SM FEW040 BKN250=



000
FTUS42 KMLB 190532
TAFMLB
TAF
KMLB 190532Z 1906/2006 26004KT P6SM BKN250
      TEMPO 1908/1911 5SM BR
     FM191300 21009KT P6SM SCT030 BKN250
     FM191900 11007KT P6SM VCTS SCT040CB BKN250
     FM200300 19005KT P6SM FEW040 BKN250=



000
FTUS42 KMLB 190532
TAFVRB
TAF
KVRB 190532Z 1906/2006 00000KT P6SM BKN250
     FM191300 20009KT P6SM SCT030 BKN250
     FM191900 11008KT P6SM VCTS SCT040CB BKN250
     FM200200 20005KT P6SM FEW040 BKN250=



000
FTUS42 KMLB 190532
TAFDAB
TAF
KDAB 190532Z 1906/2006 00000KT P6SM SCT035 BKN130
      TEMPO 1908/1911 5SM BR
     FM191400 19008KT P6SM SCT020 BKN200
     FM191800 25008KT P6SM VCTS SCT040CB BKN250
     FM200100 22003KT P6SM FEW040 BKN250=



000
FTUS42 KMLB 190532
TAFSFB
TAF
KSFB 190532Z 1906/2006 00000KT P6SM SKC
     FM191400 21010KT P6SM SCT030 BKN250
     FM191800 25009KT P6SM VCTS SCT040CB BKN250
     FM200300 18003KT P6SM FEW040 BKN250=



000
FTUS42 KMLB 190308 AAA
TAFMCO
TAF AMD
KMCO 190308Z 1903/1924 30007KT P6SM FEW030 BKN180 OVC300
     FM190600 14002KT P6SM SCT004 BKN180 OVC300
     FM191400 18010KT P6SM SCT030 BKN250
     FM191800 25008KT P6SM VCTS SCT040CB BKN250=



000
FTUS42 KMLB 182327
TAFMCO
TAF
KMCO 182327Z 1900/1924 29007KT P6SM FEW050 BKN200
     FM190300 00000KT P6SM BKN250
     FM191400 18010KT P6SM SCT030 BKN250
     FM191800 25008KT P6SM VCTS SCT040CB BKN250=



000
FTUS42 KMLB 182327
TAFSFB
TAF
KSFB 182327Z 1900/1924 28008KT P6SM FEW040 BKN250
     FM190200 18003KT P6SM BKN250
     FM191400 21010KT P6SM SCT030 BKN250
     FM191800 25009KT P6SM VCTS SCT040CB BKN250=



000
FTUS42 KMLB 182327
TAFVRB
TAF
KVRB 182327Z 1900/1924 11007KT P6SM VCTS SCT040CB BKN060 BKN250
      TEMPO 1900/1901 4SM TSRA SCT030CB BKN060 BKN100
     FM190200 22003KT P6SM SCT080 BKN250
     FM190500 00000KT 5SM BR BKN250
     FM191300 20009KT P6SM SCT030 BKN250
     FM191900 11008KT P6SM VCTS SCT040CB BKN250=



000
FTUS42 KMLB 182327
TAFMLB
TAF
KMLB 182327Z 1900/1924 13007KT P6SM BKN250
     FM190300 22003KT P6SM SCT080 BKN250
      TEMPO 1908/1911 5SM BR
     FM191300 21009KT P6SM SCT030 BKN250
     FM191900 11007KT P6SM VCTS SCT040CB BKN250=



000
FTUS42 KMLB 182327
TAFDAB
TAF
KDAB 182327Z 1900/1924 VRB03KT P6SM SCT080 BKN250
      TEMPO 1908/1911 5SM BR
     FM191400 19008KT P6SM SCT020 BKN200
     FM191800 25008KT P6SM VCTS SCT040CB BKN250=



000
FTUS42 KMLB 182320 AAA
TAFVRB
TAF AMD
KVRB 182320Z 1823/1918 11008KT P6SM VCTS BKN040CB
      TEMPO 1823/1901 3SM TSRA SCT030CB BKN060 OVC100
     FM190200 21003KT P6SM VCSH SCT080 BKN250
     FM191400 18010KT P6SM SCT025=



000
FTUS42 KMLB 181741
TAFSFB
TAF
KSFB 181741Z 1818/1918 29010KT P6SM VCSH SCT040 SCT250
     FM182100 30007KT P6SM SCT045 BKN250
     FM190000 18003KT P6SM SCT040 BKN250
     FM191400 20010KT P6SM SCT025=



000
FTUS42 KMLB 181741
TAFMCO
TAF
KMCO 181741Z 1818/1918 28009KT P6SM VCTS SCT035CB BKN060 BKN250
     FM182100 20003KT P6SM SCT045 BKN250
     FM190000 00000KT P6SM BKN250
     FM191400 19010KT P6SM SCT025=



000
FTUS42 KMLB 181741
TAFSFB
TAF
KSFB 181741Z 1818/1918 29010KT P6SM VCSH SCT040 SCT250
     FM182100 30007KT P6SM SCT045 BKN250
     FM190000 18003KT P6SM SCT040 BKN250
     FM191400 20010KT P6SM SCT025=



000
FTUS42 KMLB 181741
TAFMLB
TAF
KMLB 181741Z 1818/1918 25009KT P6SM SCT035 BKN250
     FM182000 29008KT P6SM VCTS BKN040CB BKN100
     FM190100 22006KT P6SM SCT080 BKN250
     FM191400 19010KT P6SM SCT025=



000
FTUS42 KMLB 181741
TAFDAB
TAF
KDAB 181741Z 1818/1918 26008KT P6SM BKN040 BKN060 BKN250
     FM182000 04009KT P6SM VCTS BKN040CB BKN060
     FM190000 VRB03KT P6SM SCT080 BKN250
     FM191400 20008KT P6SM SCT025=



000
FTUS42 KMLB 181741
TAFMCO
TAF
KMCO 181741Z 1818/1918 28009KT P6SM VCTS SCT035CB BKN060 BKN250
     FM182100 20003KT P6SM SCT045 BKN250
     FM190000 00000KT P6SM BKN250
     FM191400 19010KT P6SM SCT025=



000
FTUS42 KMLB 181741
TAFVRB
TAF
KVRB 181741Z 1818/1918 24012KT P6SM SCT040 BKN050
     FM182000 18007KT P6SM VCTS BKN040CB
     FM190000 21003KT P6SM VCSH SCT080 BKN250
     FM191400 18010KT P6SM SCT025=



000
FTUS42 KMLB 181527 AAB
TAFSFB
TAF AMD
KSFB 181527Z 1815/1912 25006KT P6SM SCT025 SCT120
     FM181700 27009KT P6SM VCTS SCT030CB SCT060 BKN250
     FM190000 18003KT P6SM SCT040 BKN100 OVC250
     FM190600 00000KT P6SM SCT100 BKN250=



000
FTUS42 KMLB 181527 AAB
TAFSFB
TAF AMD
KSFB 181527Z 1815/1912 25006KT P6SM SCT025 SCT120
     FM181700 27009KT P6SM VCTS SCT030CB SCT060 BKN250
     FM190000 18003KT P6SM SCT040 BKN100 OVC250
     FM190600 00000KT P6SM SCT100 BKN250=



000
FTUS42 KMLB 181500 AAB
TAFMCO
TAF AMD
KMCO 181500Z 1815/1912 24005KT P6SM SCT025 BKN250
     FM181800 28009KT P6SM VCTS SCT030CB SCT060 BKN250
     FM190000 20003KT P6SM SCT040 BKN100 OVC250
     FM190600 00000KT P6SM SCT100 BKN250=



000
FTUS42 KMLB 181311 AAA
TAFSFB
TAF AMD
KSFB 181311Z 1813/1912 20005KT P6SM SCT005 BKN120
      TEMPO 1813/1815 BKN005
     FM181500 25007KT P6SM SCT015 BKN250
     FM181700 27009KT P6SM VCTS SCT030CB SCT060 BKN250
     FM190000 18003KT P6SM SCT040 BKN100 OVC250
     FM190600 00000KT P6SM SCT100 BKN250=



000
FTUS42 KMLB 181311 AAA
TAFSFB
TAF AMD
KSFB 181311Z 1813/1912 20005KT P6SM SCT005 BKN120
      TEMPO 1813/1815 BKN005
     FM181500 25007KT P6SM SCT015 BKN250
     FM181700 27009KT P6SM VCTS SCT030CB SCT060 BKN250
     FM190000 18003KT P6SM SCT040 BKN100 OVC250
     FM190600 00000KT P6SM SCT100 BKN250=



000
FTUS42 KMLB 181310 AAA
TAFMCO
TAF AMD
KMCO 181310Z 1813/1912 21003KT P6SM SCT006 BKN150
      TEMPO 1813/1815 BKN006
     FM181500 24006KT P6SM SCT015 BKN250
     FM181800 28009KT P6SM VCTS SCT030CB SCT060 BKN250
     FM190000 20003KT P6SM SCT040 BKN100 OVC250
     FM190600 00000KT P6SM SCT100 BKN250=



000
FTUS42 KMLB 181141
TAFMLB
TAF
KMLB 181141Z 1812/1912 25003KT P6SM FEW008 OVC140
      TEMPO 1812/1813 4SM BR
     FM181400 27006KT P6SM SCT020 BKN120
     FM181900 06010KT P6SM VCTS SCT030CB BKN100
     FM190000 10006KT P6SM VCSH SCT030 BKN080 BKN250
     FM190600 19003KT P6SM FEW030 SCT100 BKN250=



000
FTUS42 KMLB 181141
TAFSFB
TAF
KSFB 181141Z 1812/1912 00000KT 3SM BR BKN004
      TEMPO 1812/1813 1SM BR OVC002
     FM181300 21004KT P6SM BKN006
      TEMPO 1813/1814 SCT006 BKN150
     FM181400 25007KT P6SM SCT025 BKN250
     FM181700 27009KT P6SM VCTS SCT030CB SCT060 BKN250
     FM190000 18003KT P6SM SCT040 BKN100 OVC250
     FM190600 00000KT P6SM SCT100 BKN250=



000
FTUS42 KMLB 181141
TAFVRB
TAF
KVRB 181141Z 1812/1912 24004KT P6SM OVC140
     FM181400 26006KT P6SM SCT020 BKN120
     FM181900 07009KT P6SM VCTS SCT030CB BKN100
     FM190000 10006KT P6SM VCSH SCT030 BKN080 BKN250
     FM190600 17003KT P6SM FEW030 SCT080 BKN250=



000
FTUS42 KMLB 181141
TAFMCO
TAF
KMCO 181141Z 1812/1912 00000KT 6SM MIFG BR SCT002 BKN150
      TEMPO 1812/1814 3SM MIFG BR BKN003
     FM181400 24006KT P6SM SCT025 BKN250
     FM181800 28009KT P6SM VCTS SCT030CB SCT060 BKN250
     FM190000 20003KT P6SM SCT040 BKN100 OVC250
     FM190600 00000KT P6SM SCT100 BKN250=



000
FTUS42 KMLB 181141
TAFDAB
TAF
KDAB 181141Z 1812/1912 00000KT P6SM SCT050 BKN140
      TEMPO 1812/1813 5SM BR SCT008
     FM181400 25003KT P6SM SCT020 BKN250
     FM181900 04009KT P6SM VCSH BKN030 BKN100
     FM190000 VRB03KT P6SM SCT040 BKN080 OVC250
     FM190600 00000KT P6SM SCT100 BKN250=



000
FTUS42 KMLB 181141
TAFMCO
TAF
KMCO 181141Z 1812/1912 00000KT 6SM MIFG BR SCT002 BKN150
      TEMPO 1812/1814 3SM MIFG BR BKN003
     FM181400 24006KT P6SM SCT025 BKN250
     FM181800 28009KT P6SM VCTS SCT030CB SCT060 BKN250
     FM190000 20003KT P6SM SCT040 BKN100 OVC250
     FM190600 00000KT P6SM SCT100 BKN250=



000
FTUS42 KMLB 181141
TAFDAB
TAF
KDAB 181141Z 1812/1912 00000KT P6SM SCT050 BKN140
      TEMPO 1812/1813 5SM BR SCT008
     FM181400 25003KT P6SM SCT020 BKN250
     FM181900 04009KT P6SM VCSH BKN030 BKN100
     FM190000 VRB03KT P6SM SCT040 BKN080 OVC250
     FM190600 00000KT P6SM SCT100 BKN250=



000
FTUS42 KMLB 181141
TAFMLB
TAF
KMLB 181141Z 1812/1912 25003KT P6SM FEW008 OVC140
      TEMPO 1812/1813 4SM BR
     FM181400 27006KT P6SM SCT020 BKN120
     FM181900 06010KT P6SM VCTS SCT030CB BKN100
     FM190000 10006KT P6SM VCSH SCT030 BKN080 BKN250
     FM190600 19003KT P6SM FEW030 SCT100 BKN250=



000
FTUS42 KMLB 181141
TAFSFB
TAF
KSFB 181141Z 1812/1912 00000KT 3SM BR BKN004
      TEMPO 1812/1813 1SM BR OVC002
     FM181300 21004KT P6SM BKN006
      TEMPO 1813/1814 SCT006 BKN150
     FM181400 25007KT P6SM SCT025 BKN250
     FM181700 27009KT P6SM VCTS SCT030CB SCT060 BKN250
     FM190000 18003KT P6SM SCT040 BKN100 OVC250
     FM190600 00000KT P6SM SCT100 BKN250=



000
FTUS42 KMLB 181141
TAFVRB
TAF
KVRB 181141Z 1812/1912 24004KT P6SM OVC140
     FM181400 26006KT P6SM SCT020 BKN120
     FM181900 07009KT P6SM VCTS SCT030CB BKN100
     FM190000 10006KT P6SM VCSH SCT030 BKN080 BKN250
     FM190600 17003KT P6SM FEW030 SCT080 BKN250=



000
FTUS42 KMLB 180858 AAA
TAFMCO
TAF AMD
KMCO 180858Z 1809/1906 16003KT 3SM BR SCT002 BKN100
      TEMPO 1809/1812 2SM BR BKN002
     FM181400 24006KT P6SM SCT025 BKN250
     FM181800 28009KT P6SM VCTS SCT030CB SCT060 BKN250
     FM190000 18004KT P6SM SCT040 BKN100 BKN250=



000
FTUS42 KMLB 180536
TAFMCO
TAF
KMCO 180536Z 1806/1906 VRB03KT P6SM SCT004 BKN100
      TEMPO 1808/1812 5SM BR BKN004
     FM181400 24006KT P6SM SCT025 BKN250
     FM181800 28009KT P6SM VCTS SCT030CB SCT060 BKN250
     FM190000 18004KT P6SM SCT040 BKN100 BKN250=



000
FTUS42 KMLB 180536
TAFMLB
TAF
KMLB 180536Z 1806/1906 VRB03KT P6SM FEW015 BKN100
     FM181400 27006KT P6SM SCT020 BKN250
     FM181900 06010KT P6SM VCTS SCT030CB BKN100
     FM190000 10006KT P6SM VCSH SCT030 BKN080 BKN250
     FM190300 17003KT P6SM FEW030 SCT080 BKN250=



000
FTUS42 KMLB 180536
TAFDAB
TAF
KDAB 180536Z 1806/1906 00000KT P6SM FEW008 SCT080 BKN250
      TEMPO 1810/1812 5SM BR BKN008
     FM181400 25003KT P6SM SCT010 BKN020 BKN250
     FM181900 04009KT P6SM VCSH BKN030 BKN100
     FM190000 VRB03KT P6SM SCT040 SCT080 BKN250=



000
FTUS42 KMLB 180536
TAFVRB
TAF
KVRB 180536Z 1806/1906 VRB03KT P6SM FEW015 BKN100
     FM181400 26006KT P6SM SCT020 BKN250
     FM181900 07009KT P6SM VCTS SCT030CB BKN100
     FM190000 10006KT P6SM VCSH SCT030 BKN080 BKN250
     FM190300 17003KT P6SM FEW030 SCT080 BKN250=



000
FTUS42 KMLB 180536
TAFSFB
TAF
KSFB 180536Z 1806/1906 00000KT P6SM FEW004 BKN100
      TEMPO 1809/1812 5SM BR BKN004
     FM181400 25007KT P6SM SCT025 BKN250
     FM181700 27009KT P6SM VCTS SCT030CB SCT060 BKN250
     FM190000 16003KT P6SM SCT040 BKN100 BKN250=



000
FTUS42 KMLB 180536
TAFMCO
TAF
KMCO 180536Z 1806/1906 VRB03KT P6SM SCT004 BKN100
      TEMPO 1808/1812 5SM BR BKN004
     FM181400 24006KT P6SM SCT025 BKN250
     FM181800 28009KT P6SM VCTS SCT030CB SCT060 BKN250
     FM190000 18004KT P6SM SCT040 BKN100 BKN250=



000
FTUS42 KMLB 180536
TAFVRB
TAF
KVRB 180536Z 1806/1906 VRB03KT P6SM FEW015 BKN100
     FM181400 26006KT P6SM SCT020 BKN250
     FM181900 07009KT P6SM VCTS SCT030CB BKN100
     FM190000 10006KT P6SM VCSH SCT030 BKN080 BKN250
     FM190300 17003KT P6SM FEW030 SCT080 BKN250=



000
FTUS42 KMLB 180536
TAFSFB
TAF
KSFB 180536Z 1806/1906 00000KT P6SM FEW004 BKN100
      TEMPO 1809/1812 5SM BR BKN004
     FM181400 25007KT P6SM SCT025 BKN250
     FM181700 27009KT P6SM VCTS SCT030CB SCT060 BKN250
     FM190000 16003KT P6SM SCT040 BKN100 BKN250=



000
FTUS42 KMLB 180536
TAFMLB
TAF
KMLB 180536Z 1806/1906 VRB03KT P6SM FEW015 BKN100
     FM181400 27006KT P6SM SCT020 BKN250
     FM181900 06010KT P6SM VCTS SCT030CB BKN100
     FM190000 10006KT P6SM VCSH SCT030 BKN080 BKN250
     FM190300 17003KT P6SM FEW030 SCT080 BKN250=



000
FTUS42 KMLB 180536
TAFDAB
TAF
KDAB 180536Z 1806/1906 00000KT P6SM FEW008 SCT080 BKN250
      TEMPO 1810/1812 5SM BR BKN008
     FM181400 25003KT P6SM SCT010 BKN020 BKN250
     FM181900 04009KT P6SM VCSH BKN030 BKN100
     FM190000 VRB03KT P6SM SCT040 SCT080 BKN250=



000
FTUS42 KMLB 180403 AAB
TAFSFB
TAF AMD
KSFB 180403Z 1804/1824 VRB03KT P6SM SCT005 BKN250
      TEMPO 1804/1808 BKN005
     FM180800 VRB03KT P6SM SCT004 BKN250
      TEMPO 1808/1812 5SM BR BKN004
     FM181400 25007KT P6SM SCT025 BKN250
     FM181700 27009KT P6SM VCTS SCT030CB SCT060 BKN250=



000
FTUS42 KMLB 180305 AAA
TAFSFB
TAF AMD
KSFB 180305Z 1803/1824 VRB03KT P6SM BKN004 BKN250
      TEMPO 1809/1812 5SM BR
     FM181400 25007KT P6SM SCT025 BKN250
     FM181700 27009KT P6SM VCTS SCT030CB SCT060 BKN250=



000
FTUS42 KMLB 180305 AAA
TAFSFB
TAF AMD
KSFB 180305Z 1803/1824 VRB03KT P6SM BKN004 BKN250
      TEMPO 1809/1812 5SM BR
     FM181400 25007KT P6SM SCT025 BKN250
     FM181700 27009KT P6SM VCTS SCT030CB SCT060 BKN250=



000
FTUS42 KMLB 180303 AAA
TAFMCO
TAF AMD
KMCO 180303Z 1803/1824 09005KT P6SM SCT005 BKN045 OVC150
      TEMPO 1803/1807 5SM BR BKN005
     FM180700 VRB03KT P6SM BKN005 BKN200
      TEMPO 1809/1812 5SM BR
     FM181400 24007KT P6SM SCT025 BKN250
     FM181700 28009KT P6SM VCTS SCT030CB SCT060 BKN250=



000
FTUS42 KMLB 172337
TAFMCO
TAF
KMCO 172337Z 1800/1824 08008KT P6SM VCSH SCT025 BKN050 OVC120
      TEMPO 1800/1801 5SM TSRA SCT020CB BKN030 OVC080
     FM180300 VRB02KT P6SM SCT020 BKN120 BKN250
      TEMPO 1809/1812 5SM BR BKN008
     FM181400 24007KT P6SM SCT025 BKN250
     FM181700 28009KT P6SM VCTS SCT030CB SCT060 BKN250=



000
FTUS42 KMLB 172337
TAFMLB
TAF
KMLB 172337Z 1800/1824 04010KT P6SM VCSH BKN018 OVC150
     FM180500 VRB03KT 5SM BR OVC010
     FM181400 23008KT P6SM SCT020
     FM181900 03010KT P6SM VCTS SCT030CB BKN100=



000
FTUS42 KMLB 172337
TAFVRB
TAF
KVRB 172337Z 1800/1824 14008KT P6SM VCSH SCT030 OVC150
     FM180400 22003KT P6SM SCT020 SCT060 OVC120
     FM181400 23008KT P6SM SCT020
     FM181900 10010KT P6SM VCTS SCT030CB BKN100=



000
FTUS42 KMLB 172337
TAFSFB
TAF
KSFB 172337Z 1800/1824 10005KT P6SM VCSH BKN030 BKN050 OVC080
      TEMPO 1800/1801 3SM TSRA SCT006 BKN025CB OVC030
     FM180300 VRB03KT P6SM SCT010 BKN080 BKN250
      TEMPO 1809/1812 5SM BR BKN008
     FM181400 25007KT P6SM SCT025 BKN250
     FM181700 27009KT P6SM VCTS SCT030CB SCT060 BKN250=



000
FTUS42 KMLB 172337
TAFDAB
TAF
KDAB 172337Z 1800/1824 05008KT P6SM VCSH OVC010
     FM180400 00000KT 4SM BR OVC008
     FM181400 25003KT P6SM SCT010 BKN020 BKN250
     FM181900 03010KT P6SM VCSH BKN030 BKN100=



000
FTUS42 KMLB 172103 AAA
TAFMCO
TAF AMD
KMCO 172103Z 1721/1818 05008KT P6SM VCSH SCT035 BKN120 OVC150
      TEMPO 1722/1724 6SM TSRA SCT030CB BKN080
     FM180000 08005KT P6SM VCSH SCT030 BKN080 OVC120
     FM180400 21003KT P6SM FEW025 BKN120 BKN250
     FM181400 24007KT P6SM SCT025=



000
FTUS42 KMLB 172103 AAA
TAFMCO
TAF AMD
KMCO 172103Z 1721/1818 05008KT P6SM VCSH SCT035 BKN120 OVC150
      TEMPO 1722/1724 6SM TSRA SCT030CB BKN080
     FM180000 08005KT P6SM VCSH SCT030 BKN080 OVC120
     FM180400 21003KT P6SM FEW025 BKN120 BKN250
     FM181400 24007KT P6SM SCT025=



000
FTUS42 KMLB 171838 AAA
TAFSFB
TAF AMD
KSFB 171838Z 1719/1818 03006KT P6SM VCSH SCT025 BKN040
     FM172000 05008KT P6SM VCSH SCT030 BKN045
      TEMPO 1720/1722 3SM TSRA BKN025CB
     FM180000 10005KT P6SM VCSH SCT030 BKN080 OVC120
     FM180400 21003KT P6SM FEW025 BKN120 BKN250
     FM181400 25007KT P6SM SCT025=



000
FTUS42 KMLB 171745
TAFMLB
TAF
KMLB 171745Z 1718/1818 08009KT P6SM VCSH FEW035 BKN070
      TEMPO 1720/1722 3SM TSRA BKN025CB
     FM180000 12006KT P6SM VCSH SCT030 BKN080
     FM180300 21003KT P6SM FEW025 SCT060 BKN120
     FM181400 23008KT P6SM SCT020=



000
FTUS42 KMLB 171745
TAFDAB
TAF
KDAB 171745Z 1718/1818 03006KT P6SM BKN012 OVC020
     FM171900 06008KT P6SM VCSH SCT025 BKN035
      TEMPO 1721/1723 3SM TSRA BKN025CB
     FM180000 07003KT P6SM VCSH SCT030 BKN060 OVC120
     FM180300 20003KT P6SM SCT030 SCT080 BKN120
     FM181400 25006KT P6SM SCT025=



000
FTUS42 KMLB 171745
TAFMCO
TAF
KMCO 171745Z 1718/1818 18005KT P6SM VCSH SCT035 BKN150
      TEMPO 1720/1722 3SM TSRA BKN025CB
     FM180000 08005KT P6SM VCSH SCT030 BKN080 OVC120
     FM180400 21003KT P6SM FEW025 BKN120 BKN250
     FM181400 24007KT P6SM SCT025=



000
FTUS42 KMLB 171745
TAFSFB
TAF
KSFB 171745Z 1718/1818 22003KT P6SM VCSH SCT025 BKN035
     FM172000 07008KT P6SM VCSH SCT030 BKN045
      TEMPO 1720/1722 3SM TSRA BKN025CB
     FM180000 10005KT P6SM VCSH SCT030 BKN080 OVC120
     FM180400 21003KT P6SM FEW025 BKN120 BKN250
     FM181400 25007KT P6SM SCT025=



000
FTUS42 KMLB 171745
TAFVRB
TAF
KVRB 171745Z 1718/1818 14009KT P6SM SCT040 BKN060
      TEMPO 1719/1721 3SM TSRA BKN025CB
     FM180000 14006KT P6SM VCSH SCT030 BKN080
     FM180300 22003KT P6SM FEW025 SCT060 BKN120
     FM181400 23008KT P6SM SCT020=



000
FTUS42 KMLB 171526 AAA
TAFDAB
TAF AMD
KDAB 171526Z 1715/1812 04006KT P6SM BKN015
     FM171700 05007KT P6SM SCT020 BKN035
     FM171900 06008KT P6SM SCT030 BKN045
      TEMPO 1720/1722 3SM TSRA BKN025CB
     FM180000 07003KT P6SM VCSH SCT030 BKN060 OVC080
     FM180300 20003KT P6SM SCT030 SCT080 BKN100=



000
FTUS42 KMLB 171523 AAB
TAFSFB
TAF AMD
KSFB 171523Z 1715/1812 18004KT P6SM BKN015
      TEMPO 1715/1716 BKN008 OVC015
     FM171700 22007KT P6SM SCT020 BKN035
      TEMPO 1719/1722 3SM TSRA BKN025CB
     FM180000 10005KT P6SM VCSH SCT030 BKN080 OVC120
     FM180400 21003KT P6SM FEW025 BKN100 BKN250=



000
FTUS42 KMLB 171523 AAB
TAFSFB
TAF AMD
KSFB 171523Z 1715/1812 18004KT P6SM BKN015
      TEMPO 1715/1716 BKN008 OVC015
     FM171700 22007KT P6SM SCT020 BKN035
      TEMPO 1719/1722 3SM TSRA BKN025CB
     FM180000 10005KT P6SM VCSH SCT030 BKN080 OVC120
     FM180400 21003KT P6SM FEW025 BKN100 BKN250=



000
FTUS42 KMLB 171522 AAB
TAFMCO
TAF AMD
KMCO 171522Z 1715/1812 21005KT P6SM SCT015 BKN025
     FM171700 23007KT P6SM SCT020 BKN035
      TEMPO 1720/1722 3SM TSRA BKN025CB
     FM180000 08005KT P6SM VCSH SCT030 BKN080 OVC120
     FM180400 21003KT P6SM FEW025 BKN100 BKN250=



000
FTUS42 KMLB 171522 AAB
TAFMCO
TAF AMD
KMCO 171522Z 1715/1812 21005KT P6SM SCT015 BKN025
     FM171700 23007KT P6SM SCT020 BKN035
      TEMPO 1720/1722 3SM TSRA BKN025CB
     FM180000 08005KT P6SM VCSH SCT030 BKN080 OVC120
     FM180400 21003KT P6SM FEW025 BKN100 BKN250=



000
FTUS42 KMLB 171304 AAB
TAFMLB
TAF AMD
KMLB 171304Z 1713/1812 VRB03KT P6SM SCT006 SCT012
      TEMPO 1713/1714 BKN006
     FM171500 18006KT P6SM SCT020 BKN035
     FM171800 12008KT P6SM SCT035 BKN040
      TEMPO 1718/1721 2SM TSRA BKN025CB
     FM180000 12006KT P6SM VCSH SCT030 BKN080
     FM180300 21003KT P6SM FEW025 SCT060 BKN120=



000
FTUS42 KMLB 171301 AAA
TAFSFB
TAF AMD
KSFB 171301Z 1713/1812 04004KT P6SM BKN015
      TEMPO 1713/1714 OVC008
     FM171500 22007KT P6SM SCT020 BKN035
      TEMPO 1719/1722 3SM TSRA BKN025CB
     FM180000 10005KT P6SM VCSH SCT030 BKN080 OVC120
     FM180400 21003KT P6SM FEW025 BKN100 BKN250=



000
FTUS42 KMLB 171301 AAA
TAFSFB
TAF AMD
KSFB 171301Z 1713/1812 04004KT P6SM BKN015
      TEMPO 1713/1714 OVC008
     FM171500 22007KT P6SM SCT020 BKN035
      TEMPO 1719/1722 3SM TSRA BKN025CB
     FM180000 10005KT P6SM VCSH SCT030 BKN080 OVC120
     FM180400 21003KT P6SM FEW025 BKN100 BKN250=



000
FTUS42 KMLB 171259 AAA
TAFMCO
TAF AMD
KMCO 171259Z 1713/1812 VRB03KT 2SM BR OVC002
      TEMPO 1713/1714 5SM BR BKN005
     FM171400 VRB04KT P6SM BKN012
     FM171600 23007KT P6SM SCT020 BKN035
      TEMPO 1719/1722 3SM TSRA BKN025CB
     FM180000 08005KT P6SM VCSH SCT030 BKN080 OVC120
     FM180400 21003KT P6SM FEW025 BKN100 BKN250=



000
FTUS42 KMLB 171259 AAA
TAFMCO
TAF AMD
KMCO 171259Z 1713/1812 VRB03KT 2SM BR OVC002
      TEMPO 1713/1714 5SM BR BKN005
     FM171400 VRB04KT P6SM BKN012
     FM171600 23007KT P6SM SCT020 BKN035
      TEMPO 1719/1722 3SM TSRA BKN025CB
     FM180000 08005KT P6SM VCSH SCT030 BKN080 OVC120
     FM180400 21003KT P6SM FEW025 BKN100 BKN250=



000
FTUS42 KMLB 171145
TAFDAB
TAF
KDAB 171145Z 1712/1812 00000KT P6SM SCT008 BKN018
      TEMPO 1712/1713 BKN008
     FM171400 04004KT P6SM SCT020 BKN035
     FM171800 06008KT P6SM SCT030 BKN045
      TEMPO 1718/1721 3SM TSRA BKN025CB
     FM180000 07003KT P6SM VCSH SCT030 BKN060 OVC080
     FM180300 20003KT P6SM SCT030 SCT080 BKN100=



000
FTUS42 KMLB 171145
TAFMCO
TAF
KMCO 171145Z 1712/1812 07005KT 1SM BR OVC002
     FM171300 10006KT 4SM BR OVC003
     FM171400 23007KT P6SM SCT020 BKN035
      TEMPO 1719/1722 3SM TSRA BKN025CB
     FM180000 08005KT P6SM VCSH SCT030 BKN080 OVC120
     FM180400 21003KT P6SM FEW025 BKN100 BKN250=



000
FTUS42 KMLB 171145
TAFSFB
TAF
KSFB 171145Z 1712/1812 01004KT 4SM BR OVC005
      TEMPO 1712/1713 2SM BR
     FM171400 22007KT P6SM SCT020 BKN035
      TEMPO 1719/1722 3SM TSRA BKN025CB
     FM180000 10005KT P6SM VCSH SCT030 BKN080 OVC120
     FM180400 21003KT P6SM FEW025 BKN100 BKN250=



000
FTUS42 KMLB 171145
TAFVRB
TAF
KVRB 171145Z 1712/1812 00000KT P6SM SCT250
     FM171400 18006KT P6SM SCT020 BKN035
     FM171800 13008KT P6SM SCT035 BKN040
      TEMPO 1718/1721 2SM TSRA BKN025CB
     FM180000 14006KT P6SM VCSH SCT030 BKN080
     FM180300 22003KT P6SM FEW025 SCT060 BKN120=



000
FTUS42 KMLB 171145
TAFMLB
TAF
KMLB 171145Z 1712/1812 27003KT 3/4SM BR BKN004
      TEMPO 1712/1713 2SM BR
     FM171300 VRB03KT 4SM BR BKN008
     FM171400 16006KT P6SM SCT020 BKN035
     FM171800 12008KT P6SM SCT035 BKN040
      TEMPO 1718/1721 2SM TSRA BKN025CB
     FM180000 12006KT P6SM VCSH SCT030 BKN080
     FM180300 21003KT P6SM FEW025 SCT060 BKN120=



000
FTUS42 KMLB 171145
TAFVRB
TAF
KVRB 171145Z 1712/1812 00000KT P6SM SCT250
     FM171400 18006KT P6SM SCT020 BKN035
     FM171800 13008KT P6SM SCT035 BKN040
      TEMPO 1718/1721 2SM TSRA BKN025CB
     FM180000 14006KT P6SM VCSH SCT030 BKN080
     FM180300 22003KT P6SM FEW025 SCT060 BKN120=



000
FTUS42 KMLB 171145
TAFDAB
TAF
KDAB 171145Z 1712/1812 00000KT P6SM SCT008 BKN018
      TEMPO 1712/1713 BKN008
     FM171400 04004KT P6SM SCT020 BKN035
     FM171800 06008KT P6SM SCT030 BKN045
      TEMPO 1718/1721 3SM TSRA BKN025CB
     FM180000 07003KT P6SM VCSH SCT030 BKN060 OVC080
     FM180300 20003KT P6SM SCT030 SCT080 BKN100=



000
FTUS42 KMLB 171145
TAFMCO
TAF
KMCO 171145Z 1712/1812 07005KT 1SM BR OVC002
     FM171300 10006KT 4SM BR OVC003
     FM171400 23007KT P6SM SCT020 BKN035
      TEMPO 1719/1722 3SM TSRA BKN025CB
     FM180000 08005KT P6SM VCSH SCT030 BKN080 OVC120
     FM180400 21003KT P6SM FEW025 BKN100 BKN250=



000
FTUS42 KMLB 171145
TAFSFB
TAF
KSFB 171145Z 1712/1812 01004KT 4SM BR OVC005
      TEMPO 1712/1713 2SM BR
     FM171400 22007KT P6SM SCT020 BKN035
      TEMPO 1719/1722 3SM TSRA BKN025CB
     FM180000 10005KT P6SM VCSH SCT030 BKN080 OVC120
     FM180400 21003KT P6SM FEW025 BKN100 BKN250=



000
FTUS42 KMLB 171145
TAFMLB
TAF
KMLB 171145Z 1712/1812 27003KT 3/4SM BR BKN004
      TEMPO 1712/1713 2SM BR
     FM171300 VRB03KT 4SM BR BKN008
     FM171400 16006KT P6SM SCT020 BKN035
     FM171800 12008KT P6SM SCT035 BKN040
      TEMPO 1718/1721 2SM TSRA BKN025CB
     FM180000 12006KT P6SM VCSH SCT030 BKN080
     FM180300 21003KT P6SM FEW025 SCT060 BKN120=



000
FTUS42 KMLB 170924 AAA
TAFMCO
TAF AMD
KMCO 170924Z 1709/1806 04006KT 3SM BR OVC002
      TEMPO 1709/1712 1SM BR VV002
     FM171500 23007KT P6SM SCT020 BKN035
      TEMPO 1719/1722 3SM TSRA BKN025CB
     FM180000 08005KT P6SM VCSH SCT030 BKN080 OVC120
     FM180400 21003KT P6SM FEW025 BKN100 BKN250=



000
FTUS42 KMLB 170924 AAA
TAFMCO
TAF AMD
KMCO 170924Z 1709/1806 04006KT 3SM BR OVC002
      TEMPO 1709/1712 1SM BR VV002
     FM171500 23007KT P6SM SCT020 BKN035
      TEMPO 1719/1722 3SM TSRA BKN025CB
     FM180000 08005KT P6SM VCSH SCT030 BKN080 OVC120
     FM180400 21003KT P6SM FEW025 BKN100 BKN250=



000
FTUS42 KMLB 170856 AAA
TAFVRB
TAF AMD
KVRB 170856Z 1709/1806 00000KT 1SM BR FEW003
      TEMPO 1709/1712 1/4SM FG BKN003
     FM171400 18006KT P6SM SCT020 BKN035
     FM171800 13008KT P6SM SCT035 BKN040
      TEMPO 1718/1721 2SM TSRA BKN025CB
     FM180000 14006KT P6SM VCSH SCT030 BKN080
     FM180300 22003KT P6SM FEW025 SCT060 BKN120=



000
FTUS42 KMLB 170855 AAD
TAFMLB
TAF AMD
KMLB 170855Z 1709/1806 33003KT 1SM BR OVC003
      TEMPO 1709/1712 1/4SM FG VV002
     FM171400 16006KT P6SM SCT020 BKN035
     FM171800 12008KT P6SM SCT035 BKN040
      TEMPO 1718/1721 2SM TSRA BKN025CB
     FM180000 12006KT P6SM VCSH SCT030 BKN080
     FM180300 21003KT P6SM FEW025 SCT060 BKN120=



000
FTUS42 KMLB 170823 AAC
TAFMLB
TAF AMD
KMLB 170823Z 1708/1806 31003KT 3SM BR SCT003
      TEMPO 1708/1712 1/2SM FG VV003
     FM171400 16006KT P6SM SCT020 BKN035
     FM171800 12008KT P6SM SCT035 BKN040
      TEMPO 1718/1721 2SM TSRA BKN025CB
     FM180000 12006KT P6SM VCSH SCT030 BKN080
     FM180300 21003KT P6SM FEW025 SCT060 BKN120=



000
FTUS42 KMLB 170529
TAFMCO
TAF
KMCO 170529Z 1706/1806 04006KT P6SM OVC005
      TEMPO 1706/1710 3SM BR
     FM171000 02004KT P6SM OVC003
      TEMPO 1710/1713 2SM BR OVC002
     FM171500 23007KT P6SM SCT020 BKN035
      TEMPO 1719/1722 3SM TSRA BKN025CB
     FM180000 08005KT P6SM VCSH SCT030 BKN080 OVC120
     FM180400 21003KT P6SM FEW025 BKN100 BKN250=



000
FTUS42 KMLB 170529
TAFMCO
TAF
KMCO 170529Z 1706/1806 04006KT P6SM OVC005
      TEMPO 1706/1710 3SM BR
     FM171000 02004KT P6SM OVC003
      TEMPO 1710/1713 2SM BR OVC002
     FM171500 23007KT P6SM SCT020 BKN035
      TEMPO 1719/1722 3SM TSRA BKN025CB
     FM180000 08005KT P6SM VCSH SCT030 BKN080 OVC120
     FM180400 21003KT P6SM FEW025 BKN100 BKN250=



000
FTUS42 KMLB 170529
TAFMLB
TAF
KMLB 170529Z 1706/1806 04005KT P6SM FEW010 SCT015 BKN100
      TEMPO 1706/1707 5SM -SHRA SCT008 BKN015
     FM170900 36004KT P6SM SCT010 BKN030
      TEMPO 1709/1713 BKN010
     FM171400 16006KT P6SM SCT020 BKN035
     FM171800 12008KT P6SM SCT035 BKN040
      TEMPO 1718/1721 2SM TSRA BKN025CB
     FM180000 12006KT P6SM VCSH SCT030 BKN080
     FM180300 21003KT P6SM FEW025 SCT060 BKN120=



000
FTUS42 KMLB 170529
TAFSFB
TAF
KSFB 170529Z 1706/1806 02005KT P6SM OVC007
      TEMPO 1706/1709 -RA
     FM170900 02004KT P6SM OVC004
      TEMPO 1710/1712 OVC002
     FM171500 23007KT P6SM SCT020 BKN035
      TEMPO 1719/1722 3SM TSRA BKN025CB
     FM180000 10005KT P6SM VCSH SCT030 BKN080 OVC120
     FM180400 21003KT P6SM FEW025 BKN100 BKN250=



000
FTUS42 KMLB 170529
TAFDAB
TAF
KDAB 170529Z 1706/1806 01005KT P6SM OVC012
     FM170800 36004KT P6SM OVC008
     FM171000 35004KT P6SM OVC006
      TEMPO 1710/1713 OVC004
     FM171400 31004KT P6SM SCT020 BKN035
     FM171800 03008KT P6SM SCT030 BKN045
      TEMPO 1718/1721 3SM TSRA BKN025CB
     FM180000 07003KT P6SM VCSH SCT030 BKN060 OVC080
     FM180300 20003KT P6SM SCT030 SCT080 BKN100=



000
FTUS42 KMLB 170529
TAFVRB
TAF
KVRB 170529Z 1706/1806 03005KT P6SM VCSH SCT008 BKN100
     FM170900 02004KT P6SM SCT010 BKN030
      TEMPO 1709/1713 BKN010
     FM171400 18006KT P6SM SCT020 BKN035
     FM171800 13008KT P6SM SCT035 BKN040
      TEMPO 1718/1721 2SM TSRA BKN025CB
     FM180000 14006KT P6SM VCSH SCT030 BKN080
     FM180300 22003KT P6SM FEW025 SCT060 BKN120=



000
FTUS42 KMLB 170529
TAFVRB
TAF
KVRB 170529Z 1706/1806 03005KT P6SM VCSH SCT008 BKN100
     FM170900 02004KT P6SM SCT010 BKN030
      TEMPO 1709/1713 BKN010
     FM171400 18006KT P6SM SCT020 BKN035
     FM171800 13008KT P6SM SCT035 BKN040
      TEMPO 1718/1721 2SM TSRA BKN025CB
     FM180000 14006KT P6SM VCSH SCT030 BKN080
     FM180300 22003KT P6SM FEW025 SCT060 BKN120=



000
FTUS42 KMLB 170529
TAFDAB
TAF
KDAB 170529Z 1706/1806 01005KT P6SM OVC012
     FM170800 36004KT P6SM OVC008
     FM171000 35004KT P6SM OVC006
      TEMPO 1710/1713 OVC004
     FM171400 31004KT P6SM SCT020 BKN035
     FM171800 03008KT P6SM SCT030 BKN045
      TEMPO 1718/1721 3SM TSRA BKN025CB
     FM180000 07003KT P6SM VCSH SCT030 BKN060 OVC080
     FM180300 20003KT P6SM SCT030 SCT080 BKN100=



000
FTUS42 KMLB 170529
TAFSFB
TAF
KSFB 170529Z 1706/1806 02005KT P6SM OVC007
      TEMPO 1706/1709 -RA
     FM170900 02004KT P6SM OVC004
      TEMPO 1710/1712 OVC002
     FM171500 23007KT P6SM SCT020 BKN035
      TEMPO 1719/1722 3SM TSRA BKN025CB
     FM180000 10005KT P6SM VCSH SCT030 BKN080 OVC120
     FM180400 21003KT P6SM FEW025 BKN100 BKN250=



000
FTUS42 KMLB 170529
TAFMLB
TAF
KMLB 170529Z 1706/1806 04005KT P6SM FEW010 SCT015 BKN100
      TEMPO 1706/1707 5SM -SHRA SCT008 BKN015
     FM170900 36004KT P6SM SCT010 BKN030
      TEMPO 1709/1713 BKN010
     FM171400 16006KT P6SM SCT020 BKN035
     FM171800 12008KT P6SM SCT035 BKN040
      TEMPO 1718/1721 2SM TSRA BKN025CB
     FM180000 12006KT P6SM VCSH SCT030 BKN080
     FM180300 21003KT P6SM FEW025 SCT060 BKN120=



000
FTUS42 KMLB 170346 AAB
TAFMLB
TAF AMD
KMLB 170346Z 1704/1724 02007KT P6SM VCSH SCT008 BKN015 BKN025
     FM170600 04005KT P6SM FEW010 SCT015 BKN100
     FM171400 23008KT P6SM SCT020 BKN040=



000
FTUS42 KMLB 170342 AAA
TAFVRB
TAF AMD
KVRB 170342Z 1704/1724 07005KT P6SM FEW012 SCT025 BKN035
      TEMPO 1704/1705 3SM TSRA SCT012 BKN025CB
     FM170600 20003KT P6SM SCT020 BKN080
     FM171400 21008KT P6SM SCT020 BKN040
     FM172000 13010KT P6SM SCT030 SCT050=



000
FTUS42 KMLB 170256 AAA
TAFSFB
TAF AMD
KSFB 170256Z 1703/1724 02007KT P6SM BKN007 BKN012
      TEMPO 1703/1706 SCT007 OVC012
     FM170600 01004KT P6SM FEW120 BKN250
     FM171500 25006KT P6SM SCT020 BKN035
      TEMPO 1719/1722 3SM TSRA BKN025CB=



000
FTUS42 KMLB 170256 AAA
TAFSFB
TAF AMD
KSFB 170256Z 1703/1724 02007KT P6SM BKN007 BKN012
      TEMPO 1703/1706 SCT007 OVC012
     FM170600 01004KT P6SM FEW120 BKN250
     FM171500 25006KT P6SM SCT020 BKN035
      TEMPO 1719/1722 3SM TSRA BKN025CB=



000
FTUS42 KMLB 170255 AAA
TAFMCO
TAF AMD
KMCO 170255Z 1703/1724 03008KT P6SM VCSH SCT006 OVC120
      TEMPO 1703/1706 BKN006
     FM170600 03003KT P6SM FEW120 BKN250
     FM171500 23007KT P6SM SCT020 BKN035
      TEMPO 1719/1722 3SM TSRA BKN025CB=



000
FTUS42 KMLB 170255 AAA
TAFMCO
TAF AMD
KMCO 170255Z 1703/1724 03008KT P6SM VCSH SCT006 OVC120
      TEMPO 1703/1706 BKN006
     FM170600 03003KT P6SM FEW120 BKN250
     FM171500 23007KT P6SM SCT020 BKN035
      TEMPO 1719/1722 3SM TSRA BKN025CB=



000
FTUS42 KMLB 170251 AAA
TAFMLB
TAF AMD
KMLB 170251Z 1703/1724 04007KT P6SM VCSH SCT010 OVC120
     FM170600 VRB03KT P6SM FEW120 BKN250
     FM171400 23008KT P6SM SCT020 BKN040=



000
FTUS42 KMLB 170251 AAA
TAFMLB
TAF AMD
KMLB 170251Z 1703/1724 04007KT P6SM VCSH SCT010 OVC120
     FM170600 VRB03KT P6SM FEW120 BKN250
     FM171400 23008KT P6SM SCT020 BKN040=



000
FTUS42 KMLB 162343
TAFDAB
TAF
KDAB 162343Z 1700/1724 02008KT P6SM OVC013
     FM170600 VRB02KT P6SM FEW120 BKN250
     FM171400 31004KT P6SM SCT020 BKN035
     FM171800 03008KT P6SM SCT030 BKN045
      TEMPO 1718/1721 3SM TSRA BKN025CB=



000
FTUS42 KMLB 162343
TAFSFB
TAF
KSFB 162343Z 1700/1724 04009KT P6SM VCSH SCT015 SCT022 OVC110
     FM170200 03004KT P6SM FEW030 BKN060 OVC120
     FM170600 01004KT P6SM FEW120 BKN250
     FM171500 25006KT P6SM SCT020 BKN035
      TEMPO 1719/1722 3SM TSRA BKN025CB=



000
FTUS42 KMLB 162343
TAFMLB
TAF
KMLB 162343Z 1700/1724 03005KT P6SM -RA VCTS BKN009 OVC028CB
     FM170400 VRB03KT P6SM FEW120 BKN250
     FM171400 23008KT P6SM SCT020 BKN040=



000
FTUS42 KMLB 162343
TAFMCO
TAF
KMCO 162343Z 1700/1724 04011KT P6SM -RA VCTS SCT060CB BKN080 OVC120
     FM170200 04003KT P6SM FEW030 BKN060 OVC120
     FM170600 03003KT P6SM FEW120 BKN250
     FM171500 23007KT P6SM SCT020 BKN035
      TEMPO 1719/1722 3SM TSRA BKN025CB=



000
FTUS42 KMLB 162343
TAFVRB
TAF
KVRB 162343Z 1700/1724 12010KT P6SM -RA VCTS FEW010 SCT030CB OVC120
     FM170300 00000KT P6SM FEW120 BKN250
     FM171400 21008KT P6SM SCT020 BKN040
     FM172000 13010KT P6SM SCT030 SCT050=



000
FTUS42 KMLB 162150 AAB
TAFMLB
TAF AMD
KMLB 162150Z 1622/1718 08008KT P6SM BKN030 OVC070
      TEMPO 1622/1624 VRB15G30KT 2SM +TSRA BKN025CB
     FM170400 VRB03KT P6SM FEW120 BKN250
     FM171400 20005KT P6SM BKN020=



000
FTUS42 KMLB 162150 AAB
TAFMLB
TAF AMD
KMLB 162150Z 1622/1718 08008KT P6SM BKN030 OVC070
      TEMPO 1622/1624 VRB15G30KT 2SM +TSRA BKN025CB
     FM170400 VRB03KT P6SM FEW120 BKN250
     FM171400 20005KT P6SM BKN020=



000
FTUS42 KMLB 162109 AAA
TAFMCO
TAF AMD
KMCO 162109Z 1621/1718 03012G18KT P6SM VCTS FEW013 BKN035CB BKN090
      TEMPO 1621/1623 3SM TSRA BKN020CB OVC040
     FM170200 04003KT P6SM FEW030 BKN060 OVC120
     FM170600 03003KT P6SM FEW120 BKN250
     FM171500 16006KT P6SM SCT020 BKN035=



000
FTUS42 KMLB 161936 AAA
TAFMLB
TAF AMD
KMLB 161936Z 1620/1718 09009KT P6SM VCSH BKN035
     FM162200 08006KT P6SM FEW030 SCT060 OVC200
     FM170400 VRB03KT P6SM FEW120 BKN250
     FM171400 20005KT P6SM BKN020=



000
FTUS42 KMLB 161936 AAA
TAFVRB
TAF AMD
KVRB 161936Z 1620/1718 10011KT P6SM VCSH SCT050 BKN100
     FM162200 11007KT P6SM FEW030 SCT060 OVC200
     FM170300 00000KT P6SM FEW120 BKN250
     FM171400 21006KT P6SM BKN020=



000
FTUS42 KMLB 161936 AAA
TAFMLB
TAF AMD
KMLB 161936Z 1620/1718 09009KT P6SM VCSH BKN035
     FM162200 08006KT P6SM FEW030 SCT060 OVC200
     FM170400 VRB03KT P6SM FEW120 BKN250
     FM171400 20005KT P6SM BKN020=



    US Dept of Commerce
    National Oceanic and Atmospheric Administration
    National Weather Service
    1325 East West Highway
    Silver Spring, MD 20910
    Page Author: NWS Internet Services Team
Disclaimer
Information Quality
Credits
Glossary
Privacy Policy
Freedom of Information Act (FOIA)
About Us
Career Opportunities